createdAt,value
2022-07-25T00:02:23.412Z,100014.18
2022-07-25T00:04:53.462Z,100020.83
2022-07-25T00:07:23.898Z,100018.87
2022-07-25T00:09:53.885Z,100016.63
2022-07-25T00:12:26.679Z,100016.07
2022-07-25T00:15:00.069Z,100016.63
2022-07-25T00:17:31.359Z,100015.78
2022-07-25T00:20:04.654Z,100015.48
2022-07-25T00:22:36.093Z,100020.72
2022-07-25T00:25:08.500Z,100013.20
2022-07-25T00:27:37.729Z,100015.69
2022-07-25T00:30:10.712Z,100022.35
2022-07-25T00:32:42.173Z,100029.02
2022-07-25T00:35:15.184Z,100022.63
2022-07-25T00:37:46.604Z,100027.08
2022-07-25T00:40:18.646Z,100031.55
2022-07-25T00:42:49.418Z,100024.30
2022-07-25T00:45:20.313Z,100025.56
2022-07-25T00:47:52.634Z,100021.11
2022-07-25T00:50:23.008Z,100023.31
2022-07-25T00:52:54.677Z,100020.78
2022-07-25T00:55:26.518Z,100016.56
2022-07-25T00:57:57.063Z,100015.17
2022-07-25T01:00:27.475Z,100016.56
2022-07-25T01:02:57.378Z,100006.83
2022-07-25T01:05:28.065Z,100013.45
2022-07-25T01:07:58.398Z,100009.53
2022-07-25T01:10:31.776Z,100004.77
2022-07-25T01:13:03.168Z,100011.69
2022-07-25T01:15:35.049Z,100014.47
2022-07-25T01:18:05.707Z,100012.22
2022-07-25T01:20:36.313Z,100013.58
2022-07-25T01:23:06.361Z,100012.15
2022-07-25T01:25:38.139Z,100006.57
2022-07-25T01:28:09.662Z,100007.36
2022-07-25T01:30:42.249Z,100012.60
2022-07-25T01:33:22.289Z,100009.25
2022-07-25T01:35:53.094Z,100012.81
2022-07-25T01:38:23.182Z,100004.95
2022-07-25T01:40:53.792Z,100012.67
2022-07-25T01:43:24.027Z,100014.61
2022-07-25T01:45:54.852Z,100013.48
2022-07-25T01:48:27.711Z,100015.94
2022-07-25T01:50:58.741Z,100015.91
2022-07-25T01:53:31.717Z,100018.38
2022-07-25T01:56:03.857Z,100017.51
2022-07-25T01:58:36.294Z,100020.28
2022-07-25T02:01:07.750Z,100019.44
2022-07-25T02:03:38.767Z,100023.61
2022-07-25T02:06:09.113Z,100024.45
2022-07-25T02:08:40.458Z,100021.03
2022-07-25T02:11:12.272Z,100021.58
2022-07-25T02:13:43.752Z,100019.64
2022-07-25T02:16:15.799Z,100017.77
2022-07-25T02:18:47.861Z,100023.86
2022-07-25T02:21:20.134Z,100024.41
2022-07-25T02:23:50.724Z,100024.41
2022-07-25T02:26:21.166Z,100029.16
2022-07-25T02:28:53.181Z,100027.77
2022-07-25T02:31:24.422Z,100028.61
2022-07-25T02:33:55.090Z,100026.09
2022-07-25T02:36:25.430Z,100021.03
2022-07-25T02:38:56.727Z,100023.77
2022-07-25T02:41:28.126Z,100018.22
2022-07-25T02:43:58.348Z,100024.35
2022-07-25T02:46:29.734Z,100028.25
2022-07-25T02:49:00.738Z,100030.52
2022-07-25T02:51:30.760Z,100035.80
2022-07-25T02:54:01.649Z,100036.55
2022-07-25T02:56:33.394Z,100044.81
2022-07-25T02:59:07.161Z,100040.87
2022-07-25T03:01:38.403Z,100041.66
2022-07-25T03:04:08.477Z,100043.56
2022-07-25T03:06:40.127Z,100042.72
2022-07-25T03:09:12.209Z,100039.66
2022-07-25T03:11:43.597Z,100047.42
2022-07-25T03:14:14.657Z,100044.95
2022-07-25T03:16:46.755Z,100042.43
2022-07-25T03:19:17.028Z,100035.20
2022-07-25T03:21:47.746Z,100038.81
2022-07-25T03:24:19.185Z,100035.72
2022-07-25T03:26:50.337Z,100040.17
2022-07-25T03:29:21.362Z,100036.30
2022-07-25T03:31:53.623Z,100031.01
2022-07-25T03:34:24.575Z,100030.75
2022-07-25T03:36:55.784Z,100032.42
2022-07-25T03:39:26.573Z,100030.52
2022-07-25T03:41:57.693Z,100030.59
2022-07-25T03:44:28.701Z,100034.75
2022-07-25T03:46:59.244Z,100034.75
2022-07-25T03:49:30.358Z,100035.84
2022-07-25T03:52:02.137Z,100035.04
2022-07-25T03:54:35.157Z,100039.48
2022-07-25T03:57:06.332Z,100036.45
2022-07-25T03:59:38.058Z,100039.27
2022-07-25T04:02:11.893Z,100044.55
2022-07-25T04:04:42.277Z,100043.75
2022-07-25T04:07:14.220Z,100051.23
2022-07-25T04:09:45.900Z,100056.78
2022-07-25T04:12:19.400Z,100056.48
2022-07-25T04:14:50.309Z,100062.30
2022-07-25T04:17:21.755Z,100060.59
2022-07-25T04:19:54.408Z,100060.33
2022-07-25T04:22:26.254Z,100060.87
2022-07-25T04:24:57.205Z,100055.33
2022-07-25T04:27:28.199Z,100059.78
2022-07-25T04:29:59.584Z,100058.14
2022-07-25T04:32:31.338Z,100064.01
2022-07-25T04:35:02.809Z,100062.45
2022-07-25T04:37:36.032Z,100061.09
2022-07-25T04:40:09.509Z,100061.68
2022-07-25T04:42:40.719Z,100068.39
2022-07-25T04:45:11.868Z,100063.16
2022-07-25T04:47:42.648Z,100056.83
2022-07-25T04:50:15.389Z,100069.09
2022-07-25T04:52:47.662Z,100065.84
2022-07-25T04:55:19.668Z,100062.84
2022-07-25T04:57:50.785Z,100069.28
2022-07-25T05:00:24.095Z,100072.95
2022-07-25T05:02:54.417Z,100071.56
2022-07-25T05:05:26.217Z,100071.83
2022-07-25T05:08:00.339Z,100074.31
2022-07-25T05:10:31.409Z,100067.98
2022-07-25T05:13:02.591Z,100071.05
2022-07-25T05:15:34.835Z,100071.91
2022-07-25T05:18:06.635Z,100071.91
2022-07-25T05:20:38.768Z,100066.09
2022-07-25T05:23:11.329Z,100071.94
2022-07-25T05:25:41.747Z,100075.86
2022-07-25T05:28:17.183Z,100070.07
2022-07-25T05:30:47.940Z,100070.36
2022-07-25T05:33:19.747Z,100072.08
2022-07-25T05:35:52.911Z,100078.19
2022-07-25T05:38:26.785Z,100074.58
2022-07-25T05:40:59.134Z,100074.89
2022-07-25T05:43:30.964Z,100076.56
2022-07-25T05:46:03.751Z,100071.88
2022-07-25T05:48:34.963Z,100077.19
2022-07-25T05:51:06.983Z,100077.77
2022-07-25T05:53:38.946Z,100080.56
2022-07-25T05:56:11.114Z,100064.47
2022-07-25T05:58:42.482Z,100063.47
2022-07-25T06:01:15.690Z,100065.19
2022-07-25T06:03:46.290Z,100062.48
2022-07-25T06:06:20.276Z,100066.47
2022-07-25T06:08:50.561Z,100062.66
2022-07-25T06:11:22.833Z,100064.92
2022-07-25T06:13:53.509Z,100067.16
2022-07-25T06:16:25.135Z,100059.66
2022-07-25T06:18:56.214Z,100062.99
2022-07-25T06:21:26.979Z,100056.05
2022-07-25T06:23:58.577Z,100061.06
2022-07-25T06:26:29.795Z,100058.59
2022-07-25T06:29:02.550Z,100056.39
2022-07-25T06:31:34.725Z,100055.36
2022-07-25T06:34:05.236Z,100055.12
2022-07-25T06:36:36.035Z,100058.48
2022-07-25T06:39:07.668Z,100059.94
2022-07-25T06:41:38.482Z,100057.18
2022-07-25T06:44:10.094Z,100054.43
2022-07-25T06:46:41.483Z,100053.63
2022-07-25T06:49:14.132Z,100050.02
2022-07-25T06:51:46.794Z,100053.09
2022-07-25T06:54:19.039Z,100055.08
2022-07-25T06:56:49.456Z,100049.60
2022-07-25T06:59:19.727Z,100048.58
2022-07-25T07:01:51.897Z,100048.88
2022-07-25T07:04:25.994Z,100051.12
2022-07-25T07:06:57.289Z,100054.42
2022-07-25T07:09:28.785Z,100051.88
2022-07-25T07:11:59.719Z,100054.92
2022-07-25T07:14:30.712Z,100048.47
2022-07-25T07:17:02.504Z,100052.86
2022-07-25T07:19:33.830Z,100050.73
2022-07-25T07:22:03.878Z,100051.73
2022-07-25T07:24:33.997Z,100039.03
2022-07-25T07:27:04.977Z,100041.17
2022-07-25T07:29:35.669Z,100042.98
2022-07-25T07:32:08.377Z,100044.81
2022-07-25T07:34:42.247Z,100034.84
2022-07-25T07:37:15.017Z,100034.22
2022-07-25T07:39:46.914Z,100031.31
2022-07-25T07:42:19.759Z,100033.07
2022-07-25T07:44:51.066Z,100036.13
2022-07-25T07:47:21.994Z,100025.17
2022-07-25T07:49:53.115Z,100023.72
2022-07-25T07:52:24.875Z,100024.96
2022-07-25T07:55:14.130Z,100027.41
2022-07-25T07:57:45.162Z,100027.77
2022-07-25T08:00:17.805Z,100031.45
2022-07-25T08:02:52.281Z,100032.29
2022-07-25T08:05:28.130Z,100032.95
2022-07-25T08:07:59.973Z,100033.74
2022-07-25T08:10:32.330Z,100030.45
2022-07-25T08:13:15.006Z,100028.06
2022-07-25T08:15:46.214Z,100019.34
2022-07-25T08:18:18.302Z,100017.68
2022-07-25T08:20:50.926Z,100015.13
2022-07-25T08:23:23.295Z,100030.86
2022-07-25T08:25:56.550Z,100034.38
2022-07-25T08:28:28.642Z,100040.66
2022-07-25T08:30:59.757Z,100037.31
2022-07-25T08:33:31.731Z,100039.72
2022-07-25T08:36:04.374Z,100044.06
2022-07-25T08:38:35.629Z,100045.09
2022-07-25T08:41:11.537Z,100041.84
2022-07-25T08:43:52.186Z,100041.38
2022-07-25T08:46:23.793Z,100040.59
2022-07-25T08:48:55.930Z,100041.88
2022-07-25T08:51:28.170Z,100035.98
2022-07-25T08:53:58.466Z,100041.67
2022-07-25T08:56:28.957Z,100043.13
2022-07-25T08:58:59.627Z,100038.12
2022-07-25T09:01:34.758Z,100039.25
2022-07-25T09:04:05.096Z,100035.02
2022-07-25T09:06:36.696Z,100034.75
2022-07-25T09:09:08.374Z,100051.23
2022-07-25T09:11:40.753Z,100044.55
2022-07-25T09:14:15.259Z,100043.27
2022-07-25T09:16:48.478Z,100036.29
2022-07-25T09:19:23.355Z,100026.27
2022-07-25T09:22:05.340Z,100025.70
2022-07-25T09:24:39.966Z,100022.84
2022-07-25T09:27:12.868Z,100025.65
2022-07-25T09:29:51.764Z,100024.55
2022-07-25T09:32:25.380Z,100028.19
2022-07-25T09:34:56.194Z,100016.41
2022-07-25T09:37:27.564Z,100025.91
2022-07-25T09:39:58.221Z,100020.92
2022-07-25T09:42:33.110Z,100024.95
2022-07-25T09:45:13.345Z,100020.30
2022-07-25T09:48:05.141Z,100028.87
2022-07-25T09:50:40.750Z,100026.86
2022-07-25T09:53:16.492Z,100029.58
2022-07-25T09:55:50.035Z,100024.45
2022-07-25T09:58:20.235Z,100022.88
2022-07-25T10:00:51.804Z,100023.75
2022-07-25T10:03:53.701Z,100014.71
2022-07-25T10:07:02.123Z,100016.68
2022-07-25T10:09:46.265Z,100016.45
2022-07-25T10:12:23.025Z,100020.37
2022-07-25T10:15:14.263Z,100013.08
2022-07-25T10:17:48.824Z,100017.05
2022-07-25T10:20:23.603Z,100008.61
2022-07-25T10:22:56.852Z,100013.61
2022-07-25T10:25:28.771Z,100018.88
2022-07-25T10:28:06.229Z,100012.41
2022-07-25T10:30:40.135Z,100018.08
2022-07-25T10:33:21.520Z,100020.88
2022-07-25T10:35:52.765Z,100009.08
2022-07-25T10:38:31.413Z,100017.98
2022-07-25T10:41:05.945Z,100014.31
2022-07-25T10:43:48.514Z,100014.01
2022-07-25T10:46:23.821Z,100020.67
2022-07-25T10:49:07.539Z,100020.11
2022-07-25T10:51:41.875Z,100012.84
2022-07-25T10:54:17.607Z,100016.20
2022-07-25T10:56:58.271Z,100019.23
2022-07-25T10:59:39.071Z,100014.47
2022-07-25T11:02:13.911Z,100011.36
2022-07-25T11:04:46.695Z,100018.91
2022-07-25T11:07:20.597Z,100007.95
2022-07-25T11:10:01.004Z,100015.77
2022-07-25T11:12:33.004Z,100010.91
2022-07-25T11:15:08.311Z,100007.13
2022-07-25T11:17:39.473Z,100003.18
2022-07-25T11:20:11.591Z,100001.21
2022-07-25T11:22:42.575Z,100001.17
2022-07-25T11:25:14.189Z,100000.34
2022-07-25T11:27:43.998Z,99999.99
2022-07-25T11:30:16.655Z,99999.65
2022-07-25T11:32:54.139Z,99999.83
2022-07-25T11:35:30.859Z,100001.50
2022-07-25T11:38:04.485Z,99998.16
2022-07-25T11:40:43.457Z,99993.47
2022-07-25T11:43:24.010Z,99997.41
2022-07-25T11:46:09.284Z,99985.63
2022-07-25T11:48:40.414Z,99985.63
2022-07-25T11:51:19.280Z,99979.41
2022-07-25T11:53:50.831Z,99995.36
2022-07-25T11:59:00.287Z,99988.89
2022-07-25T12:01:37.567Z,99990.41
2022-07-25T12:04:22.060Z,99989.17
2022-07-25T12:06:51.575Z,99987.84
2022-07-25T12:09:22.419Z,99982.61
2022-07-25T12:11:52.137Z,99974.59
2022-07-25T12:14:24.519Z,99969.59
2022-07-25T12:16:55.876Z,99965.38
2022-07-25T12:19:25.923Z,99965.05
2022-07-25T12:21:55.980Z,99959.06
2022-07-25T12:24:25.507Z,99960.05
2022-07-25T12:26:55.220Z,99964.05
2022-07-25T12:29:24.043Z,99960.25
2022-07-25T12:31:54.343Z,99958.55
2022-07-25T12:34:24.413Z,99955.21
2022-07-25T12:36:53.943Z,99959.50
2022-07-25T12:39:23.179Z,99960.38
2022-07-25T12:41:52.413Z,99964.05
2022-07-25T12:44:25.203Z,99966.85
2022-07-25T12:46:54.815Z,99959.59
2022-07-25T12:49:23.899Z,99955.42
2022-07-25T12:51:58.089Z,99953.70
2022-07-25T12:54:26.058Z,99949.08
2022-07-25T12:56:56.033Z,99950.36
2022-07-25T12:59:25.071Z,99950.01
2022-07-25T13:01:55.464Z,99949.97
2022-07-25T13:04:26.898Z,99945.76
2022-07-25T13:06:57.752Z,99942.65
2022-07-25T13:09:27.618Z,99942.34
2022-07-25T13:11:58.159Z,99941.81
2022-07-25T13:14:29.022Z,99944.09
2022-07-25T13:16:58.253Z,99941.02
2022-07-25T13:19:27.228Z,99943.88
2022-07-25T13:21:56.736Z,99933.22
2022-07-25T13:24:25.784Z,99937.17
2022-07-25T13:26:55.861Z,99923.37
2022-07-25T13:29:27.438Z,99931.13
2022-07-25T13:31:58.768Z,99923.45
2022-07-25T13:34:28.198Z,99918.33
2022-07-25T13:36:58.230Z,99924.71
2022-07-25T13:39:27.384Z,99915.98
2022-07-25T13:41:56.685Z,99915.11
2022-07-25T13:44:28.203Z,99906.60
2022-07-25T13:46:58.542Z,99901.25
2022-07-25T13:49:27.964Z,99897.25
2022-07-25T13:51:57.216Z,99905.89
2022-07-25T13:54:27.334Z,99904.32
2022-07-25T13:56:57.123Z,99902.82
2022-07-25T13:59:26.735Z,99908.95
2022-07-25T14:01:57.063Z,99911.86
2022-07-25T14:04:27.896Z,99908.59
2022-07-25T14:06:57.765Z,99906.72
2022-07-25T14:09:28.878Z,99903.80
2022-07-25T14:11:59.586Z,99907.92
2022-07-25T14:14:30.308Z,99902.73
2022-07-25T14:16:59.390Z,99904.53
2022-07-25T14:19:29.245Z,99904.31
2022-07-25T14:22:00.132Z,99903.56
2022-07-25T14:24:30.407Z,99900.55
2022-07-25T14:26:59.395Z,99893.05
2022-07-25T14:29:30.566Z,99894.54
2022-07-25T14:32:00.058Z,99898.48
2022-07-25T14:34:29.759Z,99898.78
2022-07-25T14:36:58.603Z,99894.84
2022-07-25T14:39:29.790Z,99892.61
2022-07-25T14:41:59.276Z,99889.81
2022-07-25T14:44:29.581Z,99890.95
2022-07-25T14:47:00.637Z,99890.95
2022-07-25T14:49:30.806Z,99892.36
2022-07-25T14:52:00.829Z,99880.27
2022-07-25T14:54:30.928Z,99887.80
2022-07-25T14:57:00.562Z,99888.14
2022-07-25T14:59:30.589Z,99887.70
2022-07-25T15:01:59.998Z,99891.61
2022-07-25T15:04:31.234Z,99884.95
2022-07-25T15:07:00.844Z,99888.72
2022-07-25T15:09:30.509Z,99884.91
2022-07-25T15:12:00.066Z,99881.66
2022-07-25T15:14:31.087Z,99885.09
2022-07-25T15:17:01.658Z,99887.71
2022-07-25T15:19:34.386Z,99881.62
2022-07-25T15:22:03.435Z,99889.27
2022-07-25T15:24:50.166Z,99894.61
2022-07-25T15:27:04.335Z,99899.69
2022-07-25T15:29:34.579Z,99903.94
2022-07-25T15:32:05.410Z,99904.55
2022-07-25T15:34:36.139Z,99905.80
2022-07-25T15:37:05.352Z,99907.04
2022-07-25T15:39:34.850Z,99901.84
2022-07-25T15:42:04.806Z,99907.59
2022-07-25T15:44:35.630Z,99898.99
2022-07-25T15:47:06.739Z,99899.89
2022-07-25T15:49:37.492Z,99905.27
2022-07-25T15:52:07.737Z,99904.49
2022-07-25T15:54:39.386Z,99900.33
2022-07-25T15:57:09.790Z,99902.89
2022-07-25T15:59:41.568Z,99908.22
2022-07-25T16:02:13.070Z,99905.42
2022-07-25T16:04:42.633Z,99907.12
2022-07-25T16:07:12.242Z,99910.48
2022-07-25T16:09:43.177Z,99909.65
2022-07-25T16:12:12.459Z,99915.81
2022-07-25T16:14:42.169Z,99912.18
2022-07-25T16:17:12.156Z,99912.98
2022-07-25T16:19:43.585Z,99912.09
2022-07-25T16:22:12.680Z,99911.22
2022-07-25T16:24:43.737Z,99908.42
2022-07-25T16:27:14.613Z,99908.69
2022-07-25T16:29:45.013Z,99907.56
2022-07-25T16:32:14.958Z,99912.02
2022-07-25T16:34:47.257Z,99917.89
2022-07-25T16:37:17.331Z,99913.12
2022-07-25T16:39:47.802Z,99922.36
2022-07-25T16:42:18.569Z,99917.33
2022-07-25T16:44:48.564Z,99920.69
2022-07-25T16:47:18.500Z,99919.89
2022-07-25T16:49:47.699Z,99915.42
2022-07-25T16:52:18.445Z,99920.45
2022-07-25T16:54:49.347Z,99925.22
2022-07-25T16:57:20.045Z,99931.14
2022-07-25T16:59:50.793Z,99928.97
2022-07-25T17:02:26.355Z,99934.09
2022-07-25T17:04:54.878Z,99941.14
2022-07-25T17:07:25.722Z,99938.67
2022-07-25T17:09:55.199Z,99944.56
2022-07-25T17:12:26.233Z,99943.75
2022-07-25T17:14:58.376Z,99939.05
2022-07-25T17:17:30.281Z,99936.55
2022-07-25T17:20:01.031Z,99942.98
2022-07-25T17:22:30.589Z,99928.98
2022-07-25T17:25:00.466Z,99935.42
2022-07-25T17:27:30.299Z,99937.95
2022-07-25T17:29:59.847Z,99940.47
2022-07-25T17:32:30.876Z,99937.70
2022-07-25T17:35:00.279Z,99944.70
2022-07-25T17:37:30.533Z,99938.61
2022-07-25T17:40:02.267Z,99940.00
2022-07-25T17:42:32.656Z,99942.53
2022-07-25T17:45:04.393Z,99938.09
2022-07-25T17:47:36.371Z,99943.71
2022-07-25T17:50:08.643Z,99948.78
2022-07-25T17:52:38.075Z,99950.47
2022-07-25T17:55:09.734Z,99952.19
2022-07-25T17:57:44.071Z,99960.89
2022-07-25T18:00:15.685Z,99956.98
2022-07-25T18:02:46.032Z,99955.63
2022-07-25T18:05:15.958Z,99952.59
2022-07-25T18:07:49.686Z,99956.80
2022-07-25T18:10:21.011Z,99957.09
2022-07-25T18:12:50.548Z,99952.36
2022-07-25T18:15:21.349Z,99957.97
2022-07-25T18:17:52.987Z,99958.00
2022-07-25T18:20:24.073Z,99965.58
2022-07-25T18:22:54.659Z,99973.14
2022-07-25T18:25:24.213Z,99980.98
2022-07-25T18:27:54.316Z,99980.73
2022-07-25T18:30:28.828Z,99982.44
2022-07-25T18:32:56.555Z,99979.94
2022-07-25T18:35:26.621Z,99977.73
2022-07-25T18:37:58.405Z,99983.31
2022-07-25T18:40:27.773Z,99985.00
2022-07-25T18:42:59.505Z,99981.62
2022-07-25T18:45:31.762Z,99986.37
2022-07-25T18:48:01.881Z,99987.78
2022-07-25T18:50:31.495Z,99990.02
2022-07-25T18:53:01.213Z,99987.80
2022-07-25T18:55:31.660Z,99984.15
2022-07-25T18:58:02.957Z,99986.68
2022-07-25T19:00:33.174Z,99982.80
2022-07-25T19:03:02.615Z,99985.05
2022-07-25T19:05:32.784Z,99982.02
2022-07-25T19:08:03.842Z,99980.64
2022-07-25T19:10:33.318Z,99976.20
2022-07-25T19:13:05.348Z,99974.29
2022-07-25T19:15:36.084Z,99974.03
2022-07-25T19:18:06.191Z,99977.42
2022-07-25T19:20:35.990Z,99978.84
2022-07-25T19:23:05.468Z,99978.56
2022-07-25T19:25:35.565Z,99981.62
2022-07-25T19:28:05.934Z,99983.03
2022-07-25T19:30:35.576Z,99978.86
2022-07-25T19:33:05.794Z,99979.98
2022-07-25T19:35:37.416Z,99976.66
2022-07-25T19:38:07.378Z,99976.10
2022-07-25T19:40:37.844Z,99986.42
2022-07-25T19:43:09.185Z,99978.34
2022-07-25T19:45:40.664Z,99976.66
2022-07-25T19:48:11.535Z,99986.42
2022-07-25T19:50:42.237Z,99990.88
2022-07-25T19:53:12.301Z,99991.98
2022-07-25T19:55:42.785Z,99991.41
2022-07-25T19:58:13.693Z,99991.69
2022-07-25T20:00:43.496Z,99994.47
2022-07-25T20:03:12.760Z,99990.00
2022-07-25T20:05:45.637Z,99992.78
2022-07-25T20:08:15.377Z,99992.22
2022-07-25T20:10:44.651Z,99990.82
2022-07-25T20:13:14.619Z,99994.45
2022-07-25T20:15:44.876Z,99989.14
2022-07-25T20:18:19.462Z,99994.72
2022-07-25T20:20:47.328Z,99988.88
2022-07-25T20:23:17.027Z,99984.41
2022-07-25T20:25:46.921Z,99992.50
2022-07-25T20:28:18.350Z,99989.16
2022-07-25T20:30:48.455Z,99988.05
2022-07-25T20:33:18.198Z,99989.73
2022-07-25T20:35:48.764Z,99995.86
2022-07-25T20:38:18.821Z,99996.70
2022-07-25T20:40:49.651Z,100001.73
2022-07-25T20:43:19.369Z,99999.22
2022-07-25T20:45:48.844Z,100000.61
2022-07-25T20:48:19.069Z,99993.09
2022-07-25T20:50:49.635Z,99995.59
2022-07-25T20:53:20.084Z,99997.55
2022-07-25T20:55:49.570Z,99994.77
2022-07-25T20:58:19.686Z,99996.44
2022-07-25T21:00:49.882Z,99992.26
2022-07-25T21:03:21.309Z,99988.91
2022-07-25T21:05:50.825Z,99984.73
2022-07-25T21:08:19.983Z,99989.20
2022-07-25T21:10:49.249Z,99986.69
2022-07-25T21:13:20.011Z,99985.02
2022-07-25T21:15:49.818Z,99993.66
2022-07-25T21:18:21.957Z,99994.22
2022-07-25T21:20:51.534Z,99991.43
2022-07-25T21:23:21.259Z,99993.39
2022-07-25T21:25:50.991Z,99986.70
2022-07-25T21:28:21.750Z,99986.70
2022-07-25T21:30:51.053Z,99985.58
2022-07-25T21:33:21.564Z,99981.95
2022-07-25T21:35:53.399Z,99975.55
2022-07-25T21:38:26.361Z,99974.15
2022-07-25T21:40:56.596Z,99976.94
2022-07-25T21:43:26.694Z,99974.70
2022-07-25T21:45:56.971Z,99971.37
2022-07-25T21:48:44.982Z,99971.92
2022-07-25T21:51:23.033Z,99968.31
2022-07-25T21:53:47.622Z,99971.66
2022-07-25T21:56:18.492Z,99967.76
2022-07-25T21:58:48.773Z,99969.71
2022-07-25T22:01:20.658Z,99961.63
2022-07-25T22:03:52.297Z,99974.18
2022-07-25T22:06:22.098Z,99965.82
2022-07-25T22:08:55.201Z,99967.77
2022-07-25T22:11:42.869Z,99968.61
2022-07-25T22:13:57.755Z,99970.81
2022-07-25T22:16:28.810Z,99969.98
2022-07-25T22:18:57.676Z,99963.84
2022-07-25T22:21:26.621Z,99972.21
2022-07-25T22:23:56.978Z,99968.88
2022-07-25T22:26:28.501Z,99972.77
2022-07-25T22:28:57.864Z,99983.08
2022-07-25T22:31:27.776Z,99979.46
2022-07-25T22:33:57.209Z,99975.28
2022-07-25T22:36:27.229Z,99969.12
2022-07-25T22:38:57.499Z,99976.64
2022-07-25T22:41:27.666Z,99965.49
2022-07-25T22:43:59.950Z,99968.27
2022-07-25T22:46:30.913Z,99958.80
2022-07-25T22:49:01.745Z,99963.53
2022-07-25T22:51:31.351Z,99957.12
2022-07-25T22:54:01.608Z,99958.78
2022-07-25T22:56:31.286Z,99966.02
2022-07-25T22:59:00.962Z,99971.27
2022-07-25T23:01:33.138Z,99969.59
2022-07-25T23:04:02.804Z,99964.01
2022-07-25T23:06:33.691Z,99971.52
2022-07-25T23:09:05.777Z,99969.29
2022-07-25T23:11:37.065Z,99971.23
2022-07-25T23:14:08.885Z,99967.34
2022-07-25T23:16:40.525Z,99969.00
2022-07-25T23:19:10.268Z,99960.08
2022-07-25T23:21:41.457Z,99959.50
2022-07-25T23:24:11.157Z,99956.16
2022-07-25T23:26:40.735Z,99958.65
2022-07-25T23:29:11.973Z,99967.51
2022-07-25T23:31:43.211Z,99960.81
2022-07-25T23:34:12.408Z,99963.03
2022-07-25T23:36:42.542Z,99964.69
2022-07-25T23:39:14.952Z,99952.43
2022-07-25T23:41:44.266Z,99958.26
2022-07-25T23:44:18.139Z,99959.59
2022-07-25T23:46:48.164Z,99959.03
2022-07-25T23:49:17.781Z,99955.94
2022-07-25T23:51:47.830Z,99953.14
2022-07-25T23:54:18.212Z,99958.13
2022-07-25T23:56:47.644Z,99953.38
2022-07-25T23:59:19.080Z,99948.09
